createdAt,value
2022-12-16T00:08:02.203Z,-10.8
2022-12-16T00:20:02.120Z,-10.8
2022-12-16T00:32:02.185Z,-11.4
2022-12-16T00:44:02.249Z,-11.5
2022-12-16T00:56:02.217Z,-11.4
2022-12-16T01:08:02.101Z,-11.4
2022-12-16T01:20:02.102Z,-11.5
2022-12-16T01:32:02.147Z,-10.9
2022-12-16T01:44:02.203Z,-11.5
2022-12-16T01:56:02.103Z,-11.4
2022-12-16T02:08:02.096Z,-11.3
2022-12-16T02:20:02.102Z,-11.4
2022-12-16T02:32:02.094Z,-10.9
2022-12-16T02:44:02.182Z,-11.1
2022-12-16T02:56:02.099Z,-10.3
2022-12-16T03:08:02.196Z,-10.9
2022-12-16T03:20:02.101Z,-10.9
2022-12-16T03:32:02.104Z,-10.2
2022-12-16T03:44:02.144Z,-10.4
2022-12-16T03:56:02.096Z,-10.1
2022-12-16T04:08:02.537Z,-10.6
2022-12-16T04:20:02.089Z,-10.2
2022-12-16T04:32:02.189Z,-10.0
2022-12-16T04:44:02.185Z,-9.8
2022-12-16T04:56:04.026Z,-9.9
2022-12-16T05:08:02.098Z,-10.8
2022-12-16T05:20:02.160Z,-10.9
2022-12-16T05:32:02.092Z,-10.1
2022-12-16T05:44:02.207Z,-8.6
2022-12-16T05:56:02.192Z,-11.8
2022-12-16T06:08:02.157Z,-11.9
2022-12-16T06:20:02.175Z,-12.1
2022-12-16T06:32:02.187Z,-11.4
2022-12-16T06:44:02.092Z,-11.2
2022-12-16T06:56:02.107Z,-11.4
2022-12-16T07:08:02.093Z,-11.0
2022-12-16T07:20:02.100Z,-11.2
2022-12-16T07:32:02.160Z,-11.9
2022-12-16T07:44:02.185Z,-11.7
2022-12-16T07:56:02.213Z,-12.6
2022-12-16T08:08:02.713Z,-12.0
2022-12-16T08:20:02.101Z,-12.6
2022-12-16T08:32:02.097Z,-12.4
2022-12-16T08:44:02.164Z,-12.2
2022-12-16T08:56:02.218Z,-11.7
2022-12-16T09:08:02.216Z,-11.4
2022-12-16T09:20:02.232Z,-11.1
2022-12-16T09:32:02.192Z,-10.0
2022-12-16T09:44:02.211Z,-9.5
2022-12-16T09:56:02.201Z,-9.0
2022-12-16T10:08:02.217Z,-8.4
2022-12-16T10:20:07.520Z,-8.1
2022-12-16T10:32:02.101Z,-7.8
2022-12-16T10:44:02.129Z,-7.4
2022-12-16T10:56:02.168Z,-7.0
2022-12-16T11:08:02.205Z,-6.9
2022-12-16T11:20:02.199Z,-6.5
2022-12-16T11:32:02.245Z,-6.0
2022-12-16T11:44:02.112Z,-5.7
2022-12-16T11:56:12.519Z,-5.3
2022-12-16T12:08:02.096Z,-5.0
2022-12-16T12:20:02.200Z,-4.8
2022-12-16T12:32:02.168Z,-4.7
2022-12-16T12:44:02.094Z,-4.4
2022-12-16T12:56:02.168Z,-4.3
2022-12-16T13:08:02.201Z,-4.2
2022-12-16T13:20:02.101Z,-4.2
2022-12-16T13:32:02.200Z,-4.1
2022-12-16T13:44:02.104Z,-3.9
2022-12-16T13:56:02.216Z,-3.8
2022-12-16T14:08:02.186Z,-4.0
2022-12-16T14:20:02.220Z,-3.9
2022-12-16T14:32:02.280Z,-4.3
2022-12-16T14:44:02.108Z,-4.4
2022-12-16T14:56:02.187Z,-4.9
2022-12-16T15:08:02.225Z,-5.0
2022-12-16T15:20:06.361Z,-5.3
2022-12-16T15:32:03.779Z,-6.1
2022-12-16T15:44:02.198Z,-6.5
2022-12-16T15:56:05.156Z,-6.6
2022-12-16T16:08:04.322Z,-7.0
2022-12-16T16:20:04.017Z,-7.3
2022-12-16T16:32:04.425Z,-7.2
2022-12-16T16:44:02.175Z,-7.3
2022-12-16T16:56:02.546Z,-6.7
2022-12-16T17:08:02.101Z,-6.7
2022-12-16T17:20:02.095Z,-6.5
2022-12-16T17:32:02.096Z,-7.0
2022-12-16T17:44:02.125Z,-7.0
2022-12-16T17:56:02.146Z,-6.7
2022-12-16T18:08:02.212Z,-7.5
2022-12-16T18:20:02.217Z,-8.0
2022-12-16T18:32:02.297Z,-8.6
2022-12-16T18:44:02.101Z,-8.8
2022-12-16T18:56:02.202Z,-8.7
2022-12-16T19:08:02.211Z,-8.7
2022-12-16T19:20:02.103Z,-8.0
2022-12-16T19:32:02.210Z,-7.8
2022-12-16T19:44:06.164Z,-7.6
2022-12-16T19:56:02.188Z,-7.6
2022-12-16T20:08:02.198Z,-8.2
2022-12-16T20:20:02.095Z,-8.5
2022-12-16T20:32:02.102Z,-8.2
2022-12-16T20:44:02.210Z,-8.1
2022-12-16T20:56:02.181Z,-8.0
2022-12-16T21:08:02.937Z,-7.8
2022-12-16T21:20:02.183Z,-7.7
2022-12-16T21:32:02.090Z,-7.8
2022-12-16T21:44:02.095Z,-7.8
2022-12-16T21:56:02.109Z,-7.8
2022-12-16T22:08:02.105Z,-7.8
2022-12-16T22:20:02.119Z,-8.0
2022-12-16T22:32:02.121Z,-8.1
2022-12-16T22:44:02.186Z,-8.1
2022-12-16T22:56:02.489Z,-8.0
2022-12-16T23:08:02.109Z,-8.1
2022-12-16T23:20:02.092Z,-8.2
2022-12-16T23:32:02.093Z,-8.2
2022-12-16T23:44:02.215Z,-8.3
2022-12-16T23:56:02.190Z,-8.6
